createdAt,value
2017-09-24T00:04:03.491Z,1016.38
2017-09-24T00:08:59.026Z,1016.37
2017-09-24T00:13:54.665Z,1016.36
2017-09-24T00:18:52.635Z,1016.27
2017-09-24T00:23:49.348Z,1016.26
2017-09-24T00:28:45.058Z,1016.22
2017-09-24T00:33:41.435Z,1016.29
2017-09-24T00:38:37.144Z,1016.33
2017-09-24T00:43:33.580Z,1016.28
2017-09-24T00:48:29.589Z,1016.32
2017-09-24T00:53:25.491Z,1016.26
2017-09-24T00:58:22.150Z,1016.30
2017-09-24T01:03:17.999Z,1016.24
2017-09-24T01:08:13.751Z,1016.17
2017-09-24T01:13:09.799Z,1016.23
2017-09-24T01:18:06.480Z,1016.24
2017-09-24T01:23:02.264Z,1016.25
2017-09-24T01:27:58.307Z,1016.19
2017-09-24T01:32:55.064Z,1016.23
2017-09-24T01:37:51.860Z,1016.20
2017-09-24T01:42:48.005Z,1016.15
2017-09-24T01:47:43.973Z,1016.23
2017-09-24T01:52:40.259Z,1016.12
2017-09-24T01:57:37.049Z,1016.25
2017-09-24T02:02:32.390Z,1016.28
2017-09-24T02:07:28.336Z,1016.23
2017-09-24T02:12:23.794Z,1016.15
2017-09-24T02:17:19.814Z,1016.10
2017-09-24T02:22:16.792Z,1016.18
2017-09-24T02:27:12.934Z,1016.19
2017-09-24T02:32:08.807Z,1016.21
2017-09-24T02:37:04.884Z,1016.26
2017-09-24T02:42:00.797Z,1016.17
2017-09-24T02:46:56.621Z,1016.09
2017-09-24T02:51:52.285Z,1016.21
2017-09-24T02:56:49.267Z,1016.23
2017-09-24T03:01:45.176Z,1016.11
2017-09-24T03:06:40.908Z,1016.14
2017-09-24T03:11:36.683Z,1016.13
2017-09-24T03:16:33.485Z,1016.08
2017-09-24T03:21:30.056Z,1016.07
2017-09-24T03:26:26.023Z,1016.03
2017-09-24T03:31:21.707Z,1015.99
2017-09-24T03:36:17.671Z,1015.99
2017-09-24T03:41:14.483Z,1015.84
2017-09-24T03:46:10.985Z,1015.88
2017-09-24T03:51:06.806Z,1015.87
2017-09-24T03:56:02.679Z,1015.84
2017-09-24T04:00:58.584Z,1015.81
2017-09-24T04:05:54.451Z,1015.84
2017-09-24T04:10:50.862Z,1015.88
2017-09-24T04:15:47.746Z,1015.84
2017-09-24T04:20:43.320Z,1015.90
2017-09-24T04:25:39.134Z,1015.88
2017-09-24T04:30:35.203Z,1015.90
2017-09-24T04:35:31.071Z,1015.94
2017-09-24T04:40:28.585Z,1016.02
2017-09-24T04:45:24.944Z,1016.01
2017-09-24T04:50:21.054Z,1015.98
2017-09-24T04:55:16.857Z,1016.05
2017-09-24T05:00:12.548Z,1016.04
2017-09-24T05:05:08.564Z,1016.14
2017-09-24T05:10:04.386Z,1016.14
2017-09-24T05:15:00.966Z,1016.26
2017-09-24T05:19:56.797Z,1016.24
2017-09-24T05:24:52.719Z,1016.38
2017-09-24T05:29:48.634Z,1016.30
2017-09-24T05:34:44.533Z,1016.32
2017-09-24T05:39:40.446Z,1016.27
2017-09-24T05:44:36.483Z,1016.21
2017-09-24T05:49:32.231Z,1016.23
2017-09-24T05:54:28.499Z,1016.33
2017-09-24T05:59:24.387Z,1016.34
2017-09-24T06:04:20.279Z,1016.27
2017-09-24T06:09:16.118Z,1016.27
2017-09-24T06:14:13.176Z,1016.35
2017-09-24T06:19:08.886Z,1016.44
2017-09-24T06:24:04.861Z,1016.39
2017-09-24T06:29:01.900Z,1016.39
2017-09-24T06:33:57.602Z,1016.50
2017-09-24T06:38:54.314Z,1016.51
2017-09-24T06:43:51.434Z,1016.53
2017-09-24T06:48:47.088Z,1016.55
2017-09-24T06:53:43.250Z,1016.58
2017-09-24T06:58:39.190Z,1016.65
2017-09-24T07:03:35.075Z,1016.67
2017-09-24T07:08:30.826Z,1016.78
2017-09-24T07:13:27.136Z,1016.69
2017-09-24T07:18:23.562Z,1016.68
2017-09-24T07:23:19.805Z,1016.77
2017-09-24T07:28:15.847Z,1016.92
2017-09-24T07:33:11.673Z,1016.96
2017-09-24T07:38:07.635Z,1016.88
2017-09-24T07:43:04.581Z,1016.92
2017-09-24T07:48:00.130Z,1016.97
2017-09-24T07:52:56.182Z,1016.91
2017-09-24T07:57:52.235Z,1016.93
2017-09-24T08:02:48.877Z,1017.03
2017-09-24T08:07:44.673Z,1017.08
2017-09-24T08:12:41.060Z,1017.08
2017-09-24T08:17:37.005Z,1017.00
2017-09-24T08:22:32.958Z,1016.96
2017-09-24T08:27:29.310Z,1017.10
2017-09-24T08:32:25.964Z,1017.02
2017-09-24T08:37:23.256Z,1017.09
2017-09-24T08:42:19.202Z,1017.11
2017-09-24T08:47:15.432Z,1017.06
2017-09-24T08:52:12.771Z,1017.17
2017-09-24T08:57:08.905Z,1017.10
2017-09-24T09:02:05.010Z,1017.11
2017-09-24T09:07:01.193Z,1017.07
2017-09-24T09:11:57.037Z,1017.07
2017-09-24T09:16:53.126Z,1017.16
2017-09-24T09:21:49.452Z,1017.17
2017-09-24T09:26:45.283Z,1017.19
2017-09-24T09:31:41.960Z,1017.14
2017-09-24T09:36:37.921Z,1017.08
2017-09-24T09:41:34.592Z,1016.99
2017-09-24T09:46:30.207Z,1016.97
2017-09-24T09:51:27.487Z,1017.00
2017-09-24T09:56:24.324Z,1016.89
2017-09-24T10:01:19.813Z,1017.00
2017-09-24T10:06:16.713Z,1016.90
2017-09-24T10:11:12.454Z,1016.89
2017-09-24T10:16:07.899Z,1016.92
2017-09-24T10:21:03.783Z,1016.92
2017-09-24T10:26:00.561Z,1016.81
2017-09-24T10:30:57.181Z,1016.83
2017-09-24T10:35:54.028Z,1016.81
2017-09-24T10:40:50.328Z,1016.79
2017-09-24T10:45:46.687Z,1016.84
2017-09-24T10:50:42.597Z,1016.76
2017-09-24T10:55:38.536Z,1016.80
2017-09-24T11:00:35.597Z,1016.72
2017-09-24T11:05:34.567Z,1016.82
2017-09-24T11:10:31.364Z,1016.80
2017-09-24T11:15:29.051Z,1016.76
2017-09-24T11:20:26.118Z,1016.75
2017-09-24T11:25:22.127Z,1016.74
2017-09-24T11:30:20.466Z,1016.76
2017-09-24T11:35:15.705Z,1016.66
2017-09-24T11:40:11.467Z,1016.72
2017-09-24T11:45:07.755Z,1016.68
2017-09-24T11:50:03.357Z,1016.64
2017-09-24T11:55:00.134Z,1016.69
2017-09-24T11:59:55.147Z,1016.67
2017-09-24T12:04:51.311Z,1016.62
2017-09-24T12:09:47.177Z,1016.53
2017-09-24T12:14:42.795Z,1016.70
2017-09-24T12:19:39.092Z,1016.63
2017-09-24T12:24:34.115Z,1016.68
2017-09-24T12:29:30.825Z,1016.65
2017-09-24T12:34:26.436Z,1016.67
2017-09-24T12:39:23.088Z,1016.68
2017-09-24T12:44:18.680Z,1016.68
2017-09-24T12:49:15.433Z,1016.66
2017-09-24T12:54:12.480Z,1016.57
2017-09-24T12:59:09.398Z,1016.56
2017-09-24T13:04:06.425Z,1016.56
2017-09-24T13:09:02.978Z,1016.54
2017-09-24T13:13:59.321Z,1016.61
2017-09-24T13:18:54.713Z,1016.50
2017-09-24T13:23:51.052Z,1016.50
2017-09-24T13:28:47.108Z,1016.47
2017-09-24T13:33:42.817Z,1016.43
2017-09-24T13:38:38.855Z,1016.45
2017-09-24T13:43:34.424Z,1016.45
2017-09-24T13:48:30.322Z,1016.47
2017-09-24T13:53:26.399Z,1016.33
2017-09-24T13:58:22.412Z,1016.35
2017-09-24T14:03:18.088Z,1016.32
2017-09-24T14:08:14.967Z,1016.20
2017-09-24T14:13:11.888Z,1016.22
2017-09-24T14:18:08.475Z,1016.14
2017-09-24T14:23:04.240Z,1016.19
2017-09-24T14:28:00.814Z,1016.23
2017-09-24T14:32:57.153Z,1016.26
2017-09-24T14:37:54.543Z,1016.18
2017-09-24T14:42:50.131Z,1016.23
2017-09-24T14:47:46.438Z,1016.19
2017-09-24T14:52:42.598Z,1016.19
2017-09-24T14:57:38.428Z,1016.17
2017-09-24T15:02:34.097Z,1016.30
2017-09-24T15:07:30.129Z,1016.31
2017-09-24T15:12:26.045Z,1016.22
2017-09-24T15:17:22.690Z,1016.35
2017-09-24T15:22:18.242Z,1016.31
2017-09-24T15:27:15.999Z,1016.33
2017-09-24T15:32:11.113Z,1016.45
2017-09-24T15:37:08.303Z,1016.40
2017-09-24T15:42:04.456Z,1016.42
2017-09-24T15:47:01.345Z,1016.39
2017-09-24T15:51:56.875Z,1016.40
2017-09-24T15:56:52.630Z,1016.36
2017-09-24T16:01:48.307Z,1016.39
2017-09-24T16:06:44.506Z,1016.25
2017-09-24T16:11:40.404Z,1016.36
2017-09-24T16:16:36.218Z,1016.31
2017-09-24T16:21:31.928Z,1016.41
2017-09-24T16:26:28.818Z,1016.32
2017-09-24T16:31:24.231Z,1016.39
2017-09-24T16:36:19.842Z,1016.46
2017-09-24T16:41:15.262Z,1016.43
2017-09-24T16:46:11.101Z,1016.52
2017-09-24T16:51:07.976Z,1016.63
2017-09-24T16:56:03.809Z,1016.55
2017-09-24T17:00:59.589Z,1016.60
2017-09-24T17:05:55.230Z,1016.72
2017-09-24T17:10:51.028Z,1016.63
2017-09-24T17:15:47.161Z,1016.67
2017-09-24T17:20:42.999Z,1016.66
2017-09-24T17:25:38.609Z,1016.68
2017-09-24T17:30:35.384Z,1016.62
2017-09-24T17:35:30.942Z,1016.68
2017-09-24T17:40:26.543Z,1016.66
2017-09-24T17:45:22.541Z,1016.53
2017-09-24T17:50:19.041Z,1016.59
2017-09-24T17:55:14.879Z,1016.71
2017-09-24T18:00:10.595Z,1016.61
2017-09-24T18:05:06.625Z,1016.70
2017-09-24T18:10:03.074Z,1016.78
2017-09-24T18:14:59.925Z,1016.84
2017-09-24T18:19:55.407Z,1016.93
2017-09-24T18:24:51.285Z,1016.85
2017-09-24T18:29:47.681Z,1016.93
2017-09-24T18:34:43.189Z,1016.81
2017-09-24T18:39:38.759Z,1016.88
2017-09-24T18:44:34.389Z,1016.80
2017-09-24T18:49:30.160Z,1016.82
2017-09-24T18:54:26.041Z,1016.81
2017-09-24T18:59:21.834Z,1016.94
2017-09-24T19:04:18.290Z,1016.95
2017-09-24T19:09:14.074Z,1016.93
2017-09-24T19:14:09.748Z,1016.93
2017-09-24T19:19:05.635Z,1016.82
2017-09-24T19:24:02.534Z,1016.88
2017-09-24T19:29:00.938Z,1016.96
2017-09-24T19:33:57.269Z,1016.88
2017-09-24T19:38:52.623Z,1016.87
2017-09-24T19:43:48.378Z,1016.88
2017-09-24T19:48:44.461Z,1016.82
2017-09-24T19:53:41.664Z,1016.67
2017-09-24T19:58:38.038Z,1016.68
2017-09-24T20:03:33.551Z,1016.71
2017-09-24T20:08:30.649Z,1016.67
2017-09-24T20:13:26.483Z,1016.78
2017-09-24T20:18:22.411Z,1016.74
2017-09-24T20:23:18.154Z,1016.71
2017-09-24T20:28:14.289Z,1016.71
2017-09-24T20:33:10.149Z,1016.76
2017-09-24T20:38:05.900Z,1016.81
2017-09-24T20:43:01.694Z,1016.81
2017-09-24T20:47:58.591Z,1016.84
2017-09-24T20:52:54.314Z,1016.87
2017-09-24T20:57:50.106Z,1016.88
2017-09-24T21:02:46.286Z,1016.85
2017-09-24T21:07:42.566Z,1016.78
2017-09-24T21:12:38.363Z,1016.70
2017-09-24T21:17:35.310Z,1016.80
2017-09-24T21:22:30.912Z,1016.81
2017-09-24T21:27:28.916Z,1016.72
2017-09-24T21:32:24.435Z,1016.78
2017-09-24T21:37:20.293Z,1016.80
2017-09-24T21:42:17.191Z,1016.83
2017-09-24T21:47:13.616Z,1016.75
2017-09-24T21:52:09.632Z,1016.73
2017-09-24T21:57:05.352Z,1016.72
2017-09-24T22:02:01.151Z,1016.78
2017-09-24T22:06:57.025Z,1016.71
2017-09-24T22:11:53.154Z,1016.59
2017-09-24T22:16:48.843Z,1016.57
2017-09-24T22:21:45.827Z,1016.48
2017-09-24T22:26:41.269Z,1016.55
2017-09-24T22:31:37.051Z,1016.61
2017-09-24T22:36:33.173Z,1016.57
2017-09-24T22:41:28.932Z,1016.59
2017-09-24T22:46:24.865Z,1016.49
2017-09-24T22:51:21.231Z,1016.42
2017-09-24T22:56:17.183Z,1016.47
2017-09-24T23:01:13.921Z,1016.49
2017-09-24T23:06:09.504Z,1016.53
2017-09-24T23:11:05.266Z,1016.51
2017-09-24T23:16:03.125Z,1016.53
2017-09-24T23:20:58.470Z,1016.53
2017-09-24T23:25:54.918Z,1016.55
2017-09-24T23:30:50.640Z,1016.41
2017-09-24T23:35:46.520Z,1016.50
2017-09-24T23:40:43.570Z,1016.48
2017-09-24T23:45:40.077Z,1016.34
2017-09-24T23:50:35.285Z,1016.38
2017-09-24T23:55:31.026Z,1016.48
